Time,TemperatureF,DewpointF,PressureIn,WindDirection,WindDirectionDegrees,WindSpeedMPH,WindSpeedGustMPH,Humidity,HourlyPrecipIn,Conditions,Clouds,dailyrainin,SoftwareType,DateUTC
2013-01-16 00:00:00,66.0,58.6,29.55,SW,225,0.0,0.0,77,0.00,,,0.00,WUHU21623XXSP,2013-01-16 05:00:00,
2013-01-16 00:03:00,66.0,58.6,29.55,SW,225,0.0,0.0,77,0.00,,,0.00,WUHU21623XXSP,2013-01-16 05:03:00,
2013-01-16 00:08:00,66.4,58.9,29.55,SW,225,0.0,0.0,77,0.00,,,0.00,WUHU21623XXSP,2013-01-16 05:08:00,
2013-01-16 00:13:00,66.4,58.9,29.55,SW,225,0.0,0.0,77,0.00,,,0.00,WUHU21623XXSP,2013-01-16 05:13:00,
2013-01-16 00:18:00,66.6,58.7,29.55,SW,225,0.0,0.0,76,0.00,,,0.00,WUHU21623XXSP,2013-01-16 05:18:00,
2013-01-16 00:23:00,66.6,58.7,29.55,SW,225,0.0,0.0,76,0.00,,,0.00,WUHU21623XXSP,2013-01-16 05:23:00,
2013-01-16 00:28:00,66.6,58.7,29.55,SW,225,0.0,0.0,76,0.00,,,0.00,WUHU21623XXSP,2013-01-16 05:28:00,
2013-01-16 00:33:00,66.7,58.9,29.55,SW,225,0.0,0.0,76,0.00,,,0.00,WUHU21623XXSP,2013-01-16 05:33:00,
2013-01-16 00:38:00,66.7,58.9,29.55,SW,225,0.0,0.0,76,0.00,,,0.00,WUHU21623XXSP,2013-01-16 05:38:00,
2013-01-16 00:43:00,66.7,58.9,29.54,SW,225,0.0,0.0,76,0.00,,,0.00,WUHU21623XXSP,2013-01-16 05:43:00,
2013-01-16 00:48:00,66.7,58.9,29.54,SW,225,0.0,0.0,76,0.00,,,0.00,WUHU21623XXSP,2013-01-16 05:48:00,
2013-01-16 00:53:00,66.7,58.5,29.53,WSW,247,0.0,0.0,75,0.00,,,0.00,WUHU21623XXSP,2013-01-16 05:53:00,
2013-01-16 00:58:00,66.6,58.7,29.53,SW,225,0.0,0.0,76,0.00,,,0.00,WUHU21623XXSP,2013-01-16 05:58:00,
2013-01-16 01:03:00,66.0,58.6,29.53,SSW,202,0.0,0.0,77,0.00,,,0.00,WUHU21623XXSP,2013-01-16 06:03:00,
2013-01-16 01:09:00,66.0,58.6,29.53,SSW,202,0.0,0.0,77,0.00,,,0.00,WUHU21623XXSP,2013-01-16 06:09:00,
2013-01-16 01:14:00,66.2,58.8,29.53,SSW,202,0.0,0.0,77,0.00,,,0.00,WUHU21623XXSP,2013-01-16 06:14:00,
2013-01-16 01:19:00,66.2,58.8,29.53,WSW,247,0.0,0.0,77,0.00,,,0.00,WUHU21623XXSP,2013-01-16 06:19:00,
2013-01-16 01:24:00,66.0,58.6,29.53,SSW,202,0.0,0.2,77,0.00,,,0.00,WUHU21623XXSP,2013-01-16 06:24:00,
2013-01-16 01:29:00,66.0,58.6,29.52,SSW,202,0.0,0.2,77,0.00,,,0.00,WUHU21623XXSP,2013-01-16 06:29:00,
2013-01-16 01:34:00,65.8,58.4,29.52,SSW,202,0.0,0.0,77,0.00,,,0.00,WUHU21623XXSP,2013-01-16 06:34:00,
2013-01-16 01:39:00,65.5,58.1,29.53,SE,135,0.0,0.0,77,0.00,,,0.00,WUHU21623XXSP,2013-01-16 06:39:00,
2013-01-16 01:44:00,65.5,58.1,29.52,SSE,157,0.0,0.0,77,0.00,,,0.00,WUHU21623XXSP,2013-01-16 06:44:00,
2013-01-16 01:49:00,65.8,58.4,29.52,SSE,157,0.0,0.0,77,0.00,,,0.00,WUHU21623XXSP,2013-01-16 06:49:00,
2013-01-16 01:54:00,65.8,58.4,29.53,South,180,0.0,0.0,77,0.00,,,0.00,WUHU21623XXSP,2013-01-16 06:54:00,
2013-01-16 01:59:00,65.8,58.0,29.53,SSW,202,0.0,0.0,76,0.00,,,0.00,WUHU21623XXSP,2013-01-16 06:59:00,
2013-01-16 02:04:00,65.8,58.0,29.53,SW,225,0.0,0.0,76,0.00,,,0.00,WUHU21623XXSP,2013-01-16 07:04:00,
2013-01-16 02:09:00,65.8,58.0,29.53,South,180,0.0,0.0,76,0.00,,,0.00,WUHU21623XXSP,2013-01-16 07:09:00,
2013-01-16 02:14:00,65.8,58.0,29.53,SSW,202,0.0,0.0,76,0.00,,,0.00,WUHU21623XXSP,2013-01-16 07:14:00,
2013-01-16 02:19:00,65.7,57.9,29.52,SSW,202,0.0,0.0,76,0.00,,,0.00,WUHU21623XXSP,2013-01-16 07:19:00,
2013-01-16 02:24:00,65.3,57.5,29.52,South,180,0.0,0.0,76,0.00,,,0.00,WUHU21623XXSP,2013-01-16 07:24:00,
2013-01-16 02:29:00,64.9,57.2,29.52,South,180,0.0,2.5,76,0.00,,,0.00,WUHU21623XXSP,2013-01-16 07:29:00,
2013-01-16 02:34:00,64.6,57.2,29.52,SSW,202,0.0,2.5,77,0.00,,,0.00,WUHU21623XXSP,2013-01-16 07:34:00,
2013-01-16 02:39:00,64.6,57.2,29.52,SSW,202,0.0,0.0,77,0.00,,,0.00,WUHU21623XXSP,2013-01-16 07:39:00,
2013-01-16 02:44:00,64.2,57.2,29.52,SW,225,0.0,0.0,78,0.00,,,0.00,WUHU21623XXSP,2013-01-16 07:44:00,
2013-01-16 02:49:00,64.2,57.2,29.52,SW,225,0.0,0.0,78,0.00,,,0.00,WUHU21623XXSP,2013-01-16 07:49:00,
2013-01-16 02:54:00,64.2,57.2,29.52,SW,225,0.0,0.0,78,0.00,,,0.00,WUHU21623XXSP,2013-01-16 07:54:00,
2013-01-16 02:59:00,64.2,57.6,29.52,South,180,0.0,2.9,79,0.00,,,0.00,WUHU21623XXSP,2013-01-16 07:59:00,
2013-01-16 03:04:00,64.6,57.5,29.52,WSW,247,0.0,2.9,78,0.00,,,0.00,WUHU21623XXSP,2013-01-16 08:04:00,
2013-01-16 03:09:00,64.9,57.9,29.52,WSW,247,0.0,0.0,78,0.00,,,0.00,WUHU21623XXSP,2013-01-16 08:09:00,
2013-01-16 03:14:00,64.9,57.9,29.52,SSW,202,0.0,0.0,78,0.00,,,0.00,WUHU21623XXSP,2013-01-16 08:14:00,
2013-01-16 03:20:00,65.1,57.7,29.52,SW,225,0.0,0.0,77,0.00,,,0.00,WUHU21623XXSP,2013-01-16 08:20:00,
2013-01-16 03:25:00,65.1,57.7,29.53,SSW,202,0.0,0.0,77,0.00,,,0.00,WUHU21623XXSP,2013-01-16 08:25:00,
2013-01-16 03:30:00,65.3,57.9,29.52,SSW,202,0.0,0.0,77,0.00,,,0.00,WUHU21623XXSP,2013-01-16 08:30:00,
2013-01-16 03:35:00,65.3,57.9,29.52,SW,225,0.0,0.0,77,0.00,,,0.00,WUHU21623XXSP,2013-01-16 08:35:00,
2013-01-16 03:40:00,65.3,57.9,29.52,West,270,0.0,0.0,77,0.00,,,0.00,WUHU21623XXSP,2013-01-16 08:40:00,
2013-01-16 03:45:00,65.1,57.7,29.52,SW,225,0.0,0.0,77,0.00,,,0.00,WUHU21623XXSP,2013-01-16 08:45:00,
2013-01-16 03:50:00,65.1,57.7,29.52,SSW,202,0.0,0.0,77,0.00,,,0.00,WUHU21623XXSP,2013-01-16 08:50:00,
2013-01-16 03:55:00,65.3,57.5,29.52,SSW,202,0.0,0.0,76,0.00,,,0.00,WUHU21623XXSP,2013-01-16 08:55:00,
2013-01-16 04:00:00,65.3,57.5,29.52,SSW,202,0.0,0.0,76,0.00,,,0.00,WUHU21623XXSP,2013-01-16 09:00:00,
2013-01-16 04:05:00,65.3,57.5,29.52,SSW,202,0.0,0.0,76,0.00,,,0.00,WUHU21623XXSP,2013-01-16 09:05:00,
2013-01-16 04:10:00,65.3,57.5,29.52,SW,225,0.0,0.0,76,0.00,,,0.00,WUHU21623XXSP,2013-01-16 09:10:00,
2013-01-16 04:15:00,65.3,57.5,29.52,SW,225,0.0,0.0,76,0.00,,,0.00,WUHU21623XXSP,2013-01-16 09:15:00,
2013-01-16 04:20:00,65.3,57.5,29.52,West,270,0.0,0.0,76,0.00,,,0.00,WUHU21623XXSP,2013-01-16 09:20:00,
2013-01-16 04:25:00,65.3,57.5,29.52,West,270,0.0,0.0,76,0.00,,,0.00,WUHU21623XXSP,2013-01-16 09:25:00,
2013-01-16 04:30:00,65.1,57.3,29.52,West,270,0.0,0.0,76,0.00,,,0.00,WUHU21623XXSP,2013-01-16 09:30:00,
2013-01-16 04:35:00,64.9,57.2,29.52,West,270,0.0,0.0,76,0.00,,,0.00,WUHU21623XXSP,2013-01-16 09:35:00,
2013-01-16 04:40:00,64.6,56.8,29.52,West,270,0.0,0.0,76,0.00,,,0.00,WUHU21623XXSP,2013-01-16 09:40:00,
2013-01-16 04:45:00,64.0,56.7,29.51,West,270,0.0,0.0,77,0.00,,,0.00,WUHU21623XXSP,2013-01-16 09:45:00,
2013-01-16 04:50:00,63.7,56.7,29.51,West,270,0.0,0.0,78,0.00,,,0.00,WUHU21623XXSP,2013-01-16 09:50:00,
2013-01-16 04:55:00,63.1,56.1,29.51,West,270,0.0,0.0,78,0.00,,,0.00,WUHU21623XXSP,2013-01-16 09:55:00,
2013-01-16 05:00:00,63.0,56.3,29.51,West,270,0.0,0.0,79,0.00,,,0.00,WUHU21623XXSP,2013-01-16 10:00:00,
2013-01-16 05:05:00,63.0,56.8,29.51,WSW,247,0.0,2.5,80,0.00,,,0.00,WUHU21623XXSP,2013-01-16 10:05:00,
2013-01-16 05:10:00,63.3,56.7,29.51,WSW,247,0.0,2.5,79,0.00,,,0.00,WUHU21623XXSP,2013-01-16 10:10:00,
2013-01-16 05:15:00,63.3,56.7,29.51,WSW,247,0.0,0.0,79,0.00,,,0.00,WUHU21623XXSP,2013-01-16 10:15:00,
2013-01-16 05:20:00,63.3,56.7,29.51,WSW,247,0.0,0.0,79,0.00,,,0.00,WUHU21623XXSP,2013-01-16 10:20:00,
2013-01-16 05:25:00,63.1,56.5,29.51,WSW,247,0.0,0.0,79,0.00,,,0.00,WUHU21623XXSP,2013-01-16 10:25:00,
2013-01-16 05:30:00,63.1,56.8,29.51,SSE,157,0.0,0.0,80,0.00,,,0.00,WUHU21623XXSP,2013-01-16 10:30:00,
2013-01-16 05:35:00,63.1,56.8,29.51,SSW,202,0.0,0.0,80,0.00,,,0.00,WUHU21623XXSP,2013-01-16 10:35:00,
2013-01-16 05:40:00,63.3,57.0,29.50,SSW,202,0.0,0.0,80,0.00,,,0.00,WUHU21623XXSP,2013-01-16 10:40:00,
2013-01-16 05:45:00,63.3,57.0,29.50,SSE,157,0.0,0.0,80,0.00,,,0.00,WUHU21623XXSP,2013-01-16 10:45:00,
2013-01-16 05:50:00,63.1,56.8,29.51,SSE,157,0.0,1.3,80,0.00,,,0.00,WUHU21623XXSP,2013-01-16 10:50:00,
2013-01-16 05:55:00,63.1,56.8,29.51,SSW,202,0.0,1.3,80,0.00,,,0.00,WUHU21623XXSP,2013-01-16 10:55:00,
2013-01-16 06:00:00,63.1,56.8,29.51,South,180,0.0,0.0,80,0.00,,,0.00,WUHU21623XXSP,2013-01-16 11:00:00,
2013-01-16 06:05:00,63.1,56.8,29.50,SSW,202,0.0,0.0,80,0.00,,,0.00,WUHU21623XXSP,2013-01-16 11:05:00,
2013-01-16 06:10:00,63.1,56.8,29.50,SSE,157,0.0,0.0,80,0.00,,,0.00,WUHU21623XXSP,2013-01-16 11:10:00,
2013-01-16 06:15:00,63.3,57.0,29.50,SSW,202,0.0,0.0,80,0.00,,,0.00,WUHU21623XXSP,2013-01-16 11:15:00,
2013-01-16 06:20:00,63.3,57.0,29.50,SSW,202,0.0,0.0,80,0.00,,,0.00,WUHU21623XXSP,2013-01-16 11:20:00,
2013-01-16 06:25:00,63.3,57.0,29.50,ESE,112,0.0,0.0,80,0.00,,,0.00,WUHU21623XXSP,2013-01-16 11:25:00,
2013-01-16 06:30:00,63.5,57.2,29.50,South,180,0.0,0.0,80,0.00,,,0.00,WUHU21623XXSP,2013-01-16 11:30:00,
2013-01-16 06:35:00,63.7,57.0,29.50,SW,225,0.0,0.7,79,0.00,,,0.00,WUHU21623XXSP,2013-01-16 11:35:00,
2013-01-16 06:40:00,63.7,57.0,29.50,SE,135,0.0,2.5,79,0.00,,,0.00,WUHU21623XXSP,2013-01-16 11:40:00,
2013-01-16 06:45:00,63.9,57.2,29.50,SW,225,0.0,4.7,79,0.00,,,0.00,WUHU21623XXSP,2013-01-16 11:45:00,
2013-01-16 06:50:00,63.9,57.2,29.51,SW,225,0.0,4.7,79,0.00,,,0.00,WUHU21623XXSP,2013-01-16 11:50:00,
2013-01-16 06:56:00,63.9,57.2,29.51,SW,225,0.0,2.0,79,0.00,,,0.00,WUHU21623XXSP,2013-01-16 11:56:00,
2013-01-16 07:01:00,63.7,57.0,29.51,SW,225,0.0,0.7,79,0.00,,,0.00,WUHU21623XXSP,2013-01-16 12:01:00,
2013-01-16 07:06:00,63.7,57.0,29.51,SW,225,0.0,0.7,79,0.00,,,0.00,WUHU21623XXSP,2013-01-16 12:06:00,
2013-01-16 07:11:00,63.7,57.4,29.51,SW,225,0.0,0.9,80,0.00,,,0.00,WUHU21623XXSP,2013-01-16 12:11:00,
2013-01-16 07:16:00,63.7,57.4,29.52,SW,225,0.0,2.5,80,0.00,,,0.00,WUHU21623XXSP,2013-01-16 12:16:00,
2013-01-16 07:21:00,63.7,57.4,29.52,NW,315,0.0,2.5,80,0.00,,,0.00,WUHU21623XXSP,2013-01-16 12:21:00,
2013-01-16 07:26:00,63.7,57.4,29.51,SW,225,0.0,5.1,80,0.00,,,0.00,WUHU21623XXSP,2013-01-16 12:26:00,
2013-01-16 07:31:00,63.7,57.4,29.51,SW,225,0.0,5.1,80,0.00,,,0.00,WUHU21623XXSP,2013-01-16 12:31:00,
2013-01-16 07:36:00,64.0,57.7,29.52,SSW,202,0.0,0.2,80,0.00,,,0.00,WUHU21623XXSP,2013-01-16 12:36:00,
2013-01-16 07:41:00,64.0,57.4,29.52,SSW,202,0.0,0.0,79,0.00,,,0.00,WUHU21623XXSP,2013-01-16 12:41:00,
2013-01-16 07:46:00,64.0,57.4,29.52,SSW,202,0.0,2.7,79,0.00,,,0.00,WUHU21623XXSP,2013-01-16 12:46:00,
2013-01-16 07:51:00,63.7,57.4,29.52,SSW,202,0.0,2.7,80,0.00,,,0.00,WUHU21623XXSP,2013-01-16 12:51:00,
2013-01-16 07:56:00,63.5,57.2,29.53,SSW,202,0.0,0.0,80,0.00,,,0.00,WUHU21623XXSP,2013-01-16 12:56:00,
2013-01-16 08:01:00,63.5,57.5,29.53,SW,225,0.0,0.0,81,0.00,,,0.00,WUHU21623XXSP,2013-01-16 13:01:00,
2013-01-16 08:06:00,63.1,57.5,29.53,SW,225,0.0,0.0,82,0.00,,,0.00,WUHU21623XXSP,2013-01-16 13:06:00,
2013-01-16 08:11:00,63.0,57.3,29.53,SW,225,0.0,1.1,82,0.00,,,0.00,WUHU21623XXSP,2013-01-16 13:11:00,
2013-01-16 08:16:00,63.0,57.3,29.53,West,270,0.0,1.1,82,0.00,,,0.00,WUHU21623XXSP,2013-01-16 13:16:00,
2013-01-16 08:21:00,63.1,57.5,29.54,WSW,247,0.0,0.0,82,0.00,,,0.00,WUHU21623XXSP,2013-01-16 13:21:00,
2013-01-16 08:26:00,63.1,57.5,29.54,WSW,247,0.0,0.0,82,0.00,,,0.00,WUHU21623XXSP,2013-01-16 13:26:00,
2013-01-16 08:32:00,63.3,57.7,29.54,SSW,202,0.0,0.0,82,0.00,,,0.00,WUHU21623XXSP,2013-01-16 13:32:00,
2013-01-16 08:37:00,63.5,57.9,29.54,SW,225,0.0,0.0,82,0.00,,,0.00,WUHU21623XXSP,2013-01-16 13:37:00,
2013-01-16 08:42:00,63.3,57.7,29.55,SSE,157,0.0,0.0,82,0.00,,,0.00,WUHU21623XXSP,2013-01-16 13:42:00,
2013-01-16 08:47:00,63.3,57.7,29.55,South,180,0.0,0.0,82,0.00,,,0.00,WUHU21623XXSP,2013-01-16 13:47:00,
2013-01-16 08:52:00,63.7,58.1,29.55,SSW,202,0.0,0.0,82,0.00,,,0.00,WUHU21623XXSP,2013-01-16 13:52:00,
2013-01-16 08:57:00,64.2,58.9,29.55,SSW,202,0.0,0.0,83,0.00,,,0.00,WUHU21623XXSP,2013-01-16 13:57:00,
2013-01-16 09:02:00,65.1,59.5,29.55,SSW,202,0.0,0.0,82,0.00,,,0.00,WUHU21623XXSP,2013-01-16 14:02:00,
2013-01-16 09:07:00,67.3,61.0,29.55,SW,225,0.0,0.0,80,0.00,,,0.00,WUHU21623XXSP,2013-01-16 14:07:00,
2013-01-16 09:12:00,69.1,61.5,29.55,SW,225,0.0,0.0,77,0.00,,,0.00,WUHU21623XXSP,2013-01-16 14:12:00,
2013-01-16 09:17:00,69.4,61.1,29.55,SSW,202,0.0,0.0,75,0.00,,,0.00,WUHU21623XXSP,2013-01-16 14:17:00,
2013-01-16 09:22:00,70.0,60.9,29.55,West,270,0.0,4.9,73,0.00,,,0.00,WUHU21623XXSP,2013-01-16 14:22:00,
2013-01-16 09:27:00,70.7,61.2,29.55,SSW,202,0.0,4.9,72,0.00,,,0.00,WUHU21623XXSP,2013-01-16 14:27:00,
2013-01-16 09:32:00,72.5,62.2,29.55,West,270,0.0,1.1,70,0.00,,,0.00,WUHU21623XXSP,2013-01-16 14:32:00,
2013-01-16 09:37:00,73.2,62.5,29.55,West,270,0.0,1.1,69,0.00,,,0.00,WUHU21623XXSP,2013-01-16 14:37:00,
2013-01-16 09:42:00,74.1,61.6,29.55,WSW,247,0.0,3.6,65,0.00,,,0.00,WUHU21623XXSP,2013-01-16 14:42:00,
2013-01-16 09:47:00,74.1,61.6,29.55,SW,225,0.0,3.6,65,0.00,,,0.00,WUHU21623XXSP,2013-01-16 14:47:00,
2013-01-16 09:52:00,73.2,60.7,29.55,WNW,292,0.0,4.5,65,0.00,,,0.00,WUHU21623XXSP,2013-01-16 14:52:00,
2013-01-16 09:57:00,72.3,59.9,29.55,WSW,247,0.0,4.5,65,0.00,,,0.00,WUHU21623XXSP,2013-01-16 14:57:00,
2013-01-16 10:02:00,72.3,60.3,29.55,WSW,247,0.0,1.1,66,0.00,,,0.00,WUHU21623XXSP,2013-01-16 15:02:00,
2013-01-16 10:07:00,73.2,61.2,29.55,WSW,247,0.0,1.1,66,0.00,,,0.00,WUHU21623XXSP,2013-01-16 15:07:00,
2013-01-16 10:12:00,74.5,61.5,29.55,WSW,247,0.0,3.8,64,0.00,,,0.00,WUHU21623XXSP,2013-01-16 15:12:00,
2013-01-16 10:17:00,74.3,60.9,29.56,WSW,247,0.0,3.8,63,0.00,,,0.00,WUHU21623XXSP,2013-01-16 15:17:00,
2013-01-16 10:22:00,74.1,61.1,29.55,WSW,247,0.0,0.0,64,0.00,,,0.00,WUHU21623XXSP,2013-01-16 15:22:00,
2013-01-16 10:27:00,74.5,61.5,29.55,WSW,247,0.0,0.0,64,0.00,,,0.00,WUHU21623XXSP,2013-01-16 15:27:00,
2013-01-16 10:32:00,74.5,61.5,29.55,SW,225,0.0,0.0,64,0.00,,,0.00,WUHU21623XXSP,2013-01-16 15:32:00,
2013-01-16 10:37:00,75.0,61.6,29.55,West,270,0.0,4.5,62,0.00,,,0.00,WUHU21623XXSP,2013-01-16 15:37:00,
2013-01-16 10:43:00,75.7,61.8,29.55,SE,135,0.0,4.5,62,0.00,,,0.00,WUHU21623XXSP,2013-01-16 15:43:00,
2013-01-16 10:48:00,76.6,62.2,29.55,SW,225,0.0,0.0,61,0.00,,,0.00,WUHU21623XXSP,2013-01-16 15:48:00,
2013-01-16 10:53:00,78.1,62.6,29.55,WSW,247,0.0,1.6,59,0.00,,,0.00,WUHU21623XXSP,2013-01-16 15:53:00,
2013-01-16 10:58:00,77.7,62.3,29.55,NW,315,0.0,1.6,59,0.00,,,0.00,WUHU21623XXSP,2013-01-16 15:58:00,
2013-01-16 11:03:00,76.8,61.9,29.55,West,270,0.0,0.0,60,0.00,,,0.00,WUHU21623XXSP,2013-01-16 16:03:00,
2013-01-16 11:08:00,77.2,62.2,29.55,NNW,337,0.0,0.0,60,0.00,,,0.00,WUHU21623XXSP,2013-01-16 16:08:00,
2013-01-16 11:13:00,77.0,62.1,29.54,WSW,247,0.0,0.2,60,0.00,,,0.00,WUHU21623XXSP,2013-01-16 16:13:00,
2013-01-16 11:18:00,75.7,61.4,29.54,West,270,0.0,0.2,61,0.00,,,0.00,WUHU21623XXSP,2013-01-16 16:18:00,
2013-01-16 11:23:00,75.0,61.1,29.53,West,270,0.0,0.0,62,0.00,,,0.00,WUHU21623XXSP,2013-01-16 16:23:00,
2013-01-16 11:28:00,74.3,61.3,29.53,South,180,0.0,0.2,64,0.00,,,0.00,WUHU21623XXSP,2013-01-16 16:28:00,
2013-01-16 11:33:00,74.1,61.6,29.53,SW,225,0.0,0.2,65,0.00,,,0.00,WUHU21623XXSP,2013-01-16 16:33:00,
2013-01-16 11:38:00,74.1,61.6,29.53,SW,225,0.0,0.0,65,0.00,,,0.00,WUHU21623XXSP,2013-01-16 16:38:00,
2013-01-16 11:43:00,74.3,61.7,29.53,SW,225,0.0,0.0,65,0.00,,,0.00,WUHU21623XXSP,2013-01-16 16:43:00,
2013-01-16 11:48:00,74.5,62.3,29.52,SW,225,0.0,0.0,66,0.00,,,0.00,WUHU21623XXSP,2013-01-16 16:48:00,
2013-01-16 11:53:00,74.1,61.8,29.53,WSW,247,0.0,0.0,66,0.00,,,0.00,WUHU21623XXSP,2013-01-16 16:53:00,
2013-01-16 11:58:00,73.4,61.8,29.53,SW,225,0.0,0.0,67,0.00,,,0.00,WUHU21623XXSP,2013-01-16 16:58:00,
2013-01-16 12:03:00,73.0,61.9,29.52,WSW,247,0.0,0.0,68,0.00,,,0.00,WUHU21623XXSP,2013-01-16 17:03:00,
2013-01-16 12:08:00,72.7,62.0,29.52,SW,225,0.0,0.0,69,0.00,,,0.00,WUHU21623XXSP,2013-01-16 17:08:00,
2013-01-16 12:13:00,72.3,61.6,29.52,SW,225,0.0,0.0,69,0.00,,,0.00,WUHU21623XXSP,2013-01-16 17:13:00,
2013-01-16 12:18:00,72.1,61.9,29.52,WNW,292,0.0,6.7,70,0.00,,,0.00,WUHU21623XXSP,2013-01-16 17:18:00,
2013-01-16 12:23:00,72.3,62.4,29.52,NW,315,0.0,6.7,71,0.00,,,0.00,WUHU21623XXSP,2013-01-16 17:23:00,
2013-01-16 12:28:00,72.1,62.3,29.52,West,270,0.0,0.0,71,0.00,,,0.00,WUHU21623XXSP,2013-01-16 17:28:00,
2013-01-16 12:33:00,72.1,62.3,29.52,WSW,247,0.0,0.9,71,0.00,,,0.00,WUHU21623XXSP,2013-01-16 17:33:00,
2013-01-16 12:38:00,72.3,62.4,29.52,WSW,247,0.0,0.9,71,0.00,,,0.00,WUHU21623XXSP,2013-01-16 17:38:00,
2013-01-16 12:43:00,72.5,62.6,29.51,WSW,247,0.0,0.0,71,0.00,,,0.00,WUHU21623XXSP,2013-01-16 17:43:00,
2013-01-16 12:48:00,73.4,63.5,29.51,WSW,247,0.0,0.0,71,0.00,,,0.00,WUHU21623XXSP,2013-01-16 17:48:00,
2013-01-16 12:53:00,73.8,63.5,29.50,WSW,247,0.0,0.7,70,0.00,,,0.00,WUHU21623XXSP,2013-01-16 17:53:00,
2013-01-16 12:58:00,74.5,63.7,29.50,WSW,247,0.0,0.7,69,0.00,,,0.00,WUHU21623XXSP,2013-01-16 17:58:00,
2013-01-16 13:03:00,74.8,64.0,29.50,WSW,247,0.0,0.0,69,0.00,,,0.00,WUHU21623XXSP,2013-01-16 18:03:00,
2013-01-16 13:08:00,75.6,64.2,29.50,WSW,247,0.0,0.0,68,0.00,,,0.00,WUHU21623XXSP,2013-01-16 18:08:00,
2013-01-16 13:13:00,75.9,64.1,29.50,WSW,247,0.0,0.0,67,0.00,,,0.00,WUHU21623XXSP,2013-01-16 18:13:00,
2013-01-16 13:18:00,76.6,64.4,29.50,WSW,247,0.0,0.0,66,0.00,,,0.00,WUHU21623XXSP,2013-01-16 18:18:00,
2013-01-16 13:23:00,76.8,64.1,29.49,WSW,247,0.0,0.0,65,0.00,,,0.00,WUHU21623XXSP,2013-01-16 18:23:00,
2013-01-16 13:28:00,77.0,64.3,29.50,WNW,292,0.0,0.0,65,0.00,,,0.00,WUHU21623XXSP,2013-01-16 18:28:00,
2013-01-16 13:33:00,76.5,64.2,29.49,West,270,0.0,0.0,66,0.00,,,0.00,WUHU21623XXSP,2013-01-16 18:33:00,
2013-01-16 13:38:00,76.3,64.1,29.49,West,270,0.0,0.0,66,0.00,,,0.00,WUHU21623XXSP,2013-01-16 18:38:00,
2013-01-16 13:44:00,76.5,64.2,29.49,SW,225,0.0,0.0,66,0.00,,,0.00,WUHU21623XXSP,2013-01-16 18:44:00,
2013-01-16 13:49:00,77.5,64.8,29.49,SW,225,0.0,0.0,65,0.00,,,0.00,WUHU21623XXSP,2013-01-16 18:49:00,
2013-01-16 13:54:00,81.7,66.5,29.48,NNW,337,0.0,3.1,60,0.00,,,0.00,WUHU21623XXSP,2013-01-16 18:54:00,
2013-01-16 13:59:00,82.9,66.6,29.49,NNW,337,0.0,3.1,58,0.00,,,0.00,WUHU21623XXSP,2013-01-16 18:59:00,
2013-01-16 14:04:00,82.2,65.9,29.49,NW,315,0.0,0.0,58,0.00,,,0.00,WUHU21623XXSP,2013-01-16 19:04:00,
2013-01-16 14:09:00,80.8,65.1,29.49,NW,315,0.0,1.3,59,0.00,,,0.00,WUHU21623XXSP,2013-01-16 19:09:00,
2013-01-16 14:14:00,78.1,64.5,29.49,NNW,337,0.0,1.8,63,0.00,,,0.00,WUHU21623XXSP,2013-01-16 19:14:00,
2013-01-16 14:19:00,76.3,64.1,29.49,NNW,337,0.0,2.0,66,0.00,,,0.00,WUHU21623XXSP,2013-01-16 19:19:00,
2013-01-16 14:24:00,75.0,63.7,29.49,North,0,0.0,2.0,68,0.00,,,0.00,WUHU21623XXSP,2013-01-16 19:24:00,
2013-01-16 14:29:00,73.9,63.6,29.49,West,270,0.0,0.0,70,0.00,,,0.00,WUHU21623XXSP,2013-01-16 19:29:00,
2013-01-16 14:34:00,73.2,63.3,29.48,NNW,337,0.0,0.0,71,0.00,,,0.00,WUHU21623XXSP,2013-01-16 19:34:00,
2013-01-16 14:39:00,74.3,64.3,29.49,NNW,337,0.0,0.0,71,0.00,,,0.00,WUHU21623XXSP,2013-01-16 19:39:00,
2013-01-16 14:44:00,78.6,65.8,29.48,NNW,337,0.0,0.0,65,0.00,,,0.00,WUHU21623XXSP,2013-01-16 19:44:00,
2013-01-16 14:49:00,84.4,67.8,29.48,WSW,247,0.0,0.0,57,0.00,,,0.00,WUHU21623XXSP,2013-01-16 19:49:00,
2013-01-16 14:54:00,87.6,67.8,29.47,WSW,247,0.0,0.0,52,0.00,,,0.00,WUHU21623XXSP,2013-01-16 19:54:00,
2013-01-16 14:59:00,89.4,67.7,29.47,WSW,247,0.0,0.0,49,0.00,,,0.00,WUHU21623XXSP,2013-01-16 19:59:00,
2013-01-16 15:04:00,91.0,67.9,29.48,WSW,247,0.0,0.0,47,0.00,,,0.00,WUHU21623XXSP,2013-01-16 20:04:00,
2013-01-16 15:09:00,91.2,67.4,29.48,WSW,247,0.0,1.8,46,0.00,,,0.00,WUHU21623XXSP,2013-01-16 20:09:00,
2013-01-16 15:14:00,91.2,67.4,29.47,WSW,247,0.0,1.8,46,0.00,,,0.00,WUHU21623XXSP,2013-01-16 20:14:00,
2013-01-16 15:19:00,91.0,67.2,29.47,WSW,247,0.0,0.0,46,0.00,,,0.00,WUHU21623XXSP,2013-01-16 20:19:00,
2013-01-16 15:24:00,89.4,66.4,29.47,North,0,0.0,0.0,47,0.00,,,0.00,WUHU21623XXSP,2013-01-16 20:24:00,
2013-01-16 15:29:00,89.8,66.8,29.47,WSW,247,0.0,0.0,47,0.00,,,0.00,WUHU21623XXSP,2013-01-16 20:29:00,
2013-01-16 15:34:00,89.8,66.1,29.47,North,0,0.0,0.0,46,0.00,,,0.00,WUHU21623XXSP,2013-01-16 20:34:00,
2013-01-16 15:40:00,85.3,64.7,29.47,North,0,0.0,0.0,50,0.00,,,0.00,WUHU21623XXSP,2013-01-16 20:40:00,
2013-01-16 15:45:00,82.6,64.1,29.48,North,0,0.0,0.0,54,0.00,,,0.00,WUHU21623XXSP,2013-01-16 20:45:00,
2013-01-16 15:50:00,78.6,62.6,29.48,North,0,0.0,0.0,58,0.00,,,0.00,WUHU21623XXSP,2013-01-16 20:50:00,
2013-01-16 15:55:00,77.5,62.6,29.47,North,0,0.0,0.0,60,0.00,,,0.00,WUHU21623XXSP,2013-01-16 20:55:00,
2013-01-16 16:00:00,77.5,63.0,29.47,North,0,0.0,0.0,61,0.00,,,0.00,WUHU21623XXSP,2013-01-16 21:00:00,
2013-01-16 16:05:00,77.2,62.7,29.48,NNW,337,0.0,0.0,61,0.00,,,0.00,WUHU21623XXSP,2013-01-16 21:05:00,
2013-01-16 16:10:00,76.3,62.7,29.48,NNW,337,0.0,0.0,63,0.00,,,0.00,WUHU21623XXSP,2013-01-16 21:10:00,
2013-01-16 16:15:00,75.4,62.8,29.48,NNW,337,0.0,0.0,65,0.00,,,0.00,WUHU21623XXSP,2013-01-16 21:15:00,
2013-01-16 16:20:00,74.3,62.2,29.48,NNW,337,0.0,0.0,66,0.00,,,0.00,WUHU21623XXSP,2013-01-16 21:20:00,
2013-01-16 16:25:00,73.6,62.4,29.48,NNW,337,0.0,0.0,68,0.00,,,0.00,WUHU21623XXSP,2013-01-16 21:25:00,
2013-01-16 16:30:00,73.0,62.3,29.48,NNW,337,0.0,0.0,69,0.00,,,0.00,WUHU21623XXSP,2013-01-16 21:30:00,
2013-01-16 16:35:00,72.5,62.2,29.49,NNW,337,0.0,0.0,70,0.00,,,0.00,WUHU21623XXSP,2013-01-16 21:35:00,
2013-01-16 16:40:00,72.0,62.1,29.49,North,0,0.0,0.0,71,0.00,,,0.00,WUHU21623XXSP,2013-01-16 21:40:00,
2013-01-16 16:45:00,71.6,62.1,29.49,North,0,0.0,0.0,72,0.00,,,0.00,WUHU21623XXSP,2013-01-16 21:45:00,
2013-01-16 16:50:00,70.9,62.1,29.50,NNW,337,0.0,1.8,74,0.00,,,0.00,WUHU21623XXSP,2013-01-16 21:50:00,
2013-01-16 16:55:00,69.1,61.5,29.50,NNW,337,0.0,1.8,77,0.00,,,0.00,WUHU21623XXSP,2013-01-16 21:55:00,
2013-01-16 17:00:00,67.8,61.5,29.50,WSW,247,0.0,0.0,80,0.00,,,0.00,WUHU21623XXSP,2013-01-16 22:00:00,
2013-01-16 17:05:00,66.7,61.1,29.50,West,270,0.0,0.0,82,0.00,,,0.00,WUHU21623XXSP,2013-01-16 22:05:00,
2013-01-16 17:10:00,66.2,60.9,29.50,West,270,0.0,0.0,83,0.00,,,0.00,WUHU21623XXSP,2013-01-16 22:10:00,
2013-01-16 17:15:00,65.8,60.8,29.50,West,270,0.0,0.0,84,0.00,,,0.00,WUHU21623XXSP,2013-01-16 22:15:00,
2013-01-16 17:20:00,65.3,60.7,29.50,West,270,0.0,0.0,85,0.00,,,0.00,WUHU21623XXSP,2013-01-16 22:20:00,
2013-01-16 17:25:00,65.3,61.0,29.50,West,270,0.0,0.0,86,0.00,,,0.00,WUHU21623XXSP,2013-01-16 22:25:00,
2013-01-16 17:30:00,65.1,61.2,29.50,West,270,0.0,0.0,87,0.00,,,0.00,WUHU21623XXSP,2013-01-16 22:30:00,
2013-01-16 17:35:00,64.9,61.3,29.50,NNW,337,0.0,0.0,88,0.00,,,0.00,WUHU21623XXSP,2013-01-16 22:35:00,
2013-01-16 17:40:00,64.9,61.3,29.50,NNW,337,0.0,0.0,88,0.00,,,0.00,WUHU21623XXSP,2013-01-16 22:40:00,
2013-01-16 17:45:00,64.9,61.7,29.49,NNW,337,0.0,0.0,89,0.00,,,0.00,WUHU21623XXSP,2013-01-16 22:45:00,
2013-01-16 17:50:00,64.8,61.5,29.50,NNW,337,0.0,0.0,89,0.00,,,0.00,WUHU21623XXSP,2013-01-16 22:50:00,
2013-01-16 17:55:00,64.6,61.7,29.50,NNW,337,0.0,0.0,90,0.00,,,0.00,WUHU21623XXSP,2013-01-16 22:55:00,
2013-01-16 18:00:00,64.6,61.7,29.50,NNW,337,0.0,0.0,90,0.00,,,0.00,WUHU21623XXSP,2013-01-16 23:00:00,
2013-01-16 18:05:00,64.6,61.7,29.50,NNW,337,0.0,0.0,90,0.00,,,0.00,WUHU21623XXSP,2013-01-16 23:05:00,
2013-01-16 18:10:00,64.6,61.7,29.49,NNW,337,0.0,0.0,90,0.00,,,0.00,WUHU21623XXSP,2013-01-16 23:10:00,
2013-01-16 18:15:00,64.6,61.7,29.49,NNW,337,0.0,0.0,90,0.00,,,0.00,WUHU21623XXSP,2013-01-16 23:15:00,
2013-01-16 18:20:00,64.6,61.7,29.50,NNW,337,0.0,0.0,90,0.00,,,0.00,WUHU21623XXSP,2013-01-16 23:20:00,
2013-01-16 18:25:00,64.6,61.7,29.50,NNW,337,0.0,0.0,90,0.00,,,0.00,WUHU21623XXSP,2013-01-16 23:25:00,
2013-01-16 18:30:00,64.6,61.7,29.50,NNW,337,0.0,0.0,90,0.00,,,0.00,WUHU21623XXSP,2013-01-16 23:30:00,
2013-01-16 18:35:00,64.4,61.5,29.50,NNW,337,0.0,0.0,90,0.00,,,0.00,WUHU21623XXSP,2013-01-16 23:35:00,
2013-01-16 18:40:00,64.6,61.7,29.50,NNW,337,0.0,0.0,90,0.00,,,0.00,WUHU21623XXSP,2013-01-16 23:40:00,
2013-01-16 18:46:00,64.6,61.7,29.51,NNW,337,0.0,0.0,90,0.00,,,0.00,WUHU21623XXSP,2013-01-16 23:46:00,
2013-01-16 18:51:00,64.6,61.7,29.51,NNW,337,0.0,0.0,90,0.00,,,0.00,WUHU21623XXSP,2013-01-16 23:51:00,
2013-01-16 18:56:00,64.6,61.7,29.51,NNW,337,0.0,0.0,90,0.00,,,0.00,WUHU21623XXSP,2013-01-16 23:56:00,
2013-01-16 19:01:00,64.6,61.7,29.51,NNW,337,0.0,0.0,90,0.00,,,0.00,WUHU21623XXSP,2013-01-17 00:01:00,
2013-01-16 19:06:00,64.6,61.7,29.51,NNW,337,0.0,0.0,90,0.00,,,0.00,WUHU21623XXSP,2013-01-17 00:06:00,
2013-01-16 19:11:00,64.6,62.0,29.51,NNW,337,0.0,0.0,91,0.00,,,0.00,WUHU21623XXSP,2013-01-17 00:11:00,
2013-01-16 19:16:00,64.4,61.8,29.51,NNW,337,0.0,0.0,91,0.00,,,0.00,WUHU21623XXSP,2013-01-17 00:16:00,
2013-01-16 19:21:00,64.4,61.8,29.51,NNW,337,0.0,0.0,91,0.00,,,0.00,WUHU21623XXSP,2013-01-17 00:21:00,
2013-01-16 19:26:00,64.2,61.6,29.51,NNW,337,0.0,0.0,91,0.00,,,0.00,WUHU21623XXSP,2013-01-17 00:26:00,
2013-01-16 19:31:00,64.2,61.6,29.51,NNW,337,0.0,0.0,91,0.00,,,0.00,WUHU21623XXSP,2013-01-17 00:31:00,
2013-01-16 19:36:00,64.2,61.6,29.51,NNW,337,0.0,0.0,91,0.00,,,0.00,WUHU21623XXSP,2013-01-17 00:36:00,
2013-01-16 19:41:00,64.2,61.6,29.52,NNW,337,0.0,0.0,91,0.00,,,0.00,WUHU21623XXSP,2013-01-17 00:41:00,
2013-01-16 19:46:00,64.2,61.6,29.52,NNW,337,0.0,0.0,91,0.00,,,0.00,WUHU21623XXSP,2013-01-17 00:46:00,
2013-01-16 19:51:00,64.2,61.6,29.52,NNW,337,0.0,0.0,91,0.00,,,0.00,WUHU21623XXSP,2013-01-17 00:51:00,
2013-01-16 19:56:00,64.2,61.3,29.52,NNW,337,0.0,0.0,90,0.00,,,0.00,WUHU21623XXSP,2013-01-17 00:56:00,
2013-01-16 20:01:00,64.2,61.3,29.52,NNW,337,0.0,0.0,90,0.00,,,0.00,WUHU21623XXSP,2013-01-17 01:01:00,
2013-01-16 20:06:00,64.2,61.3,29.51,NNW,337,0.0,0.0,90,0.00,,,0.00,WUHU21623XXSP,2013-01-17 01:06:00,
2013-01-16 20:11:00,64.2,61.3,29.51,NNW,337,0.0,0.0,90,0.00,,,0.00,WUHU21623XXSP,2013-01-17 01:11:00,
2013-01-16 20:16:00,64.2,61.3,29.51,NNW,337,0.0,0.0,90,0.00,,,0.00,WUHU21623XXSP,2013-01-17 01:16:00,
2013-01-16 20:21:00,64.2,61.3,29.50,NNW,337,0.0,0.0,90,0.00,,,0.00,WUHU21623XXSP,2013-01-17 01:21:00,
2013-01-16 20:26:00,64.2,61.3,29.51,NNW,337,0.0,0.0,90,0.00,,,0.00,WUHU21623XXSP,2013-01-17 01:26:00,
2013-01-16 20:31:00,64.2,61.3,29.51,NNW,337,0.0,0.0,90,0.00,,,0.00,WUHU21623XXSP,2013-01-17 01:31:00,
2013-01-16 20:36:00,64.0,61.2,29.51,NNW,337,0.0,0.0,90,0.00,,,0.00,WUHU21623XXSP,2013-01-17 01:36:00,
2013-01-16 20:41:00,64.0,61.2,29.50,NNW,337,0.0,0.0,90,0.00,,,0.00,WUHU21623XXSP,2013-01-17 01:41:00,
2013-01-16 20:46:00,64.0,61.2,29.51,NNW,337,0.0,0.0,90,0.00,,,0.00,WUHU21623XXSP,2013-01-17 01:46:00,
2013-01-16 20:51:00,64.0,60.8,29.51,NNW,337,0.0,0.0,89,0.00,,,0.00,WUHU21623XXSP,2013-01-17 01:51:00,
2013-01-16 20:56:00,64.0,60.8,29.50,NNW,337,0.0,0.0,89,0.00,,,0.00,WUHU21623XXSP,2013-01-17 01:56:00,
2013-01-16 21:01:00,64.0,60.8,29.50,NNW,337,0.0,0.0,89,0.00,,,0.00,WUHU21623XXSP,2013-01-17 02:01:00,
2013-01-16 21:06:00,64.0,60.8,29.51,NNW,337,0.0,0.0,89,0.00,,,0.00,WUHU21623XXSP,2013-01-17 02:06:00,
2013-01-16 21:11:00,64.0,60.8,29.51,NNW,337,0.0,0.0,89,0.00,,,0.00,WUHU21623XXSP,2013-01-17 02:11:00,
2013-01-16 21:16:00,64.0,60.8,29.51,NNW,337,0.0,0.0,89,0.00,,,0.00,WUHU21623XXSP,2013-01-17 02:16:00,
2013-01-16 21:21:00,64.0,60.8,29.51,NNW,337,0.0,0.0,89,0.00,,,0.00,WUHU21623XXSP,2013-01-17 02:21:00,
2013-01-16 21:26:00,64.0,60.8,29.51,NNW,337,0.0,0.0,89,0.00,,,0.00,WUHU21623XXSP,2013-01-17 02:26:00,
2013-01-16 21:31:00,64.0,60.8,29.51,NNW,337,0.0,0.0,89,0.00,,,0.00,WUHU21623XXSP,2013-01-17 02:31:00,
2013-01-16 21:36:00,64.0,60.8,29.51,NNW,337,0.0,0.0,89,0.00,,,0.00,WUHU21623XXSP,2013-01-17 02:36:00,
2013-01-16 21:41:00,64.0,60.5,29.51,NNW,337,0.0,0.0,88,0.00,,,0.00,WUHU21623XXSP,2013-01-17 02:41:00,
2013-01-16 21:46:00,64.0,60.5,29.51,NNW,337,0.0,0.0,88,0.00,,,0.00,WUHU21623XXSP,2013-01-17 02:46:00,
2013-01-16 21:51:00,64.0,60.5,29.51,NNW,337,0.0,0.0,88,0.00,,,0.00,WUHU21623XXSP,2013-01-17 02:51:00,
2013-01-16 21:56:00,64.0,60.5,29.51,NNW,337,0.0,0.0,88,0.00,,,0.00,WUHU21623XXSP,2013-01-17 02:56:00,
2013-01-16 22:01:00,63.7,60.1,29.51,NNW,337,0.0,0.0,88,0.00,,,0.00,WUHU21623XXSP,2013-01-17 03:01:00,
2013-01-16 22:06:00,63.7,60.1,29.51,NNW,337,0.0,0.0,88,0.00,,,0.00,WUHU21623XXSP,2013-01-17 03:06:00,
2013-01-16 22:11:00,63.5,59.9,29.51,NNW,337,0.0,0.0,88,0.00,,,0.00,WUHU21623XXSP,2013-01-17 03:11:00,
2013-01-16 22:16:00,63.3,59.8,29.51,NNW,337,0.0,0.0,88,0.00,,,0.00,WUHU21623XXSP,2013-01-17 03:16:00,
2013-01-16 22:21:00,63.3,59.8,29.50,NNW,337,0.0,0.0,88,0.00,,,0.00,WUHU21623XXSP,2013-01-17 03:21:00,
2013-01-16 22:26:00,63.1,59.2,29.50,NNW,337,0.0,0.0,87,0.00,,,0.00,WUHU21623XXSP,2013-01-17 03:26:00,
2013-01-16 22:31:00,63.1,59.2,29.50,NNW,337,0.0,0.0,87,0.00,,,0.00,WUHU21623XXSP,2013-01-17 03:31:00,
2013-01-16 22:36:00,63.1,59.2,29.51,NNW,337,0.0,0.0,87,0.00,,,0.00,WUHU21623XXSP,2013-01-17 03:36:00,
2013-01-16 22:42:00,63.1,59.2,29.50,NNW,337,0.0,0.0,87,0.00,,,0.00,WUHU21623XXSP,2013-01-17 03:42:00,
2013-01-16 22:46:00,63.1,59.2,29.50,NNW,337,0.0,0.0,87,0.00,,,0.00,WUHU21623XXSP,2013-01-17 03:46:00,
2013-01-16 22:51:00,63.1,59.2,29.50,NNW,337,0.0,0.0,87,0.00,,,0.00,WUHU21623XXSP,2013-01-17 03:51:00,
2013-01-16 22:56:00,63.0,59.1,29.50,NNW,337,0.0,0.0,87,0.00,,,0.00,WUHU21623XXSP,2013-01-17 03:56:00,
2013-01-16 23:01:00,63.0,59.1,29.50,NNW,337,0.0,0.0,87,0.00,,,0.00,WUHU21623XXSP,2013-01-17 04:01:00,
2013-01-16 23:06:00,63.0,58.7,29.50,NNW,337,0.0,0.0,86,0.00,,,0.00,WUHU21623XXSP,2013-01-17 04:06:00,
2013-01-16 23:11:00,63.0,58.7,29.50,NNW,337,0.0,0.0,86,0.00,,,0.00,WUHU21623XXSP,2013-01-17 04:11:00,
2013-01-16 23:17:00,62.8,58.5,29.50,NNW,337,0.0,0.0,86,0.00,,,0.00,WUHU21623XXSP,2013-01-17 04:17:00,
2013-01-16 23:22:00,62.8,58.5,29.50,NNW,337,0.0,0.0,86,0.00,,,0.00,WUHU21623XXSP,2013-01-17 04:22:00,
2013-01-16 23:27:00,62.6,58.4,29.50,NNW,337,0.0,0.0,86,0.00,,,0.00,WUHU21623XXSP,2013-01-17 04:27:00,
2013-01-16 23:32:00,62.4,58.2,29.50,NNW,337,0.0,0.0,86,0.00,,,0.00,WUHU21623XXSP,2013-01-17 04:32:00,
2013-01-16 23:37:00,62.4,58.2,29.50,NNW,337,0.0,0.0,86,0.00,,,0.00,WUHU21623XXSP,2013-01-17 04:37:00,
2013-01-16 23:42:00,62.4,58.2,29.50,NNW,337,0.0,0.0,86,0.00,,,0.00,WUHU21623XXSP,2013-01-17 04:42:00,
2013-01-16 23:47:00,62.4,58.2,29.50,NNW,337,0.0,0.0,86,0.00,,,0.00,WUHU21623XXSP,2013-01-17 04:47:00,
2013-01-16 23:52:00,62.4,58.2,29.49,NNW,337,0.0,0.0,86,0.00,,,0.00,WUHU21623XXSP,2013-01-17 04:52:00,
2013-01-16 23:57:00,62.1,57.8,29.49,NNW,337,0.0,0.0,86,0.00,,,0.00,WUHU21623XXSP,2013-01-17 04:57:00,